Time;durP1;ratioP1;P1;durP2;ratioP2;P2;SDS_P1;SDS_P2;PMS_P1;PMS_P2;Temp;Humidity;BMP_temperature;BMP_pressure;BME280_temperature;BME280_humidity;BME280_pressure;Samples;Min_cycle;Max_cycle;Signal;HPM_P1;HPM_P2
2022/04/26 03:38:03;;;;;;;;;29.75;24.75;;;;;-145.45;100.00;57426.63;5062009;28;45334;-77
2022/04/26 03:40:28;;;;;;;;;44.25;35.00;;;;;-145.45;100.00;57426.63;5063812;27;45415;-77
2022/04/26 03:42:54;;;;;;;;;33.50;31.75;;;;;-145.45;100.00;57426.63;5071123;28;45515;-77
2022/04/26 03:45:19;;;;;;;;;32.00;27.50;;;;;-145.45;100.00;57426.63;5075784;27;46157;-77
2022/04/26 03:47:44;;;;;;;;;37.25;32.00;;;;;-145.45;100.00;57426.63;5070322;28;46568;-78
2022/04/26 03:50:10;;;;;;;;;32.25;29.25;;;;;-145.45;100.00;57426.63;5076630;27;45408;-78
2022/04/26 03:52:35;;;;;;;;;34.00;30.75;;;;;-145.45;100.00;57426.63;5073847;28;45572;-76
2022/04/26 03:55:02;;;;;;;;;37.00;32.50;;;;;-145.45;100.00;57426.63;5062527;27;45619;-77
2022/04/26 03:57:28;;;;;;;;;35.25;30.25;;;;;-145.45;100.00;57426.63;5070074;28;46111;-77
2022/04/26 03:59:53;;;;;;;;;39.75;31.50;;;;;-145.45;100.00;57426.63;5063651;27;45259;-77
2022/04/26 04:02:19;;;;;;;;;38.00;34.00;;;;;-145.45;100.00;57426.63;5071731;28;45628;-77
2022/04/26 04:04:45;;;;;;;;;36.50;31.00;;;;;-145.45;100.00;57426.63;5068893;28;45729;-77
2022/04/26 04:07:11;;;;;;;;;34.75;31.25;;;;;-145.45;100.00;57426.63;5064301;28;46217;-77
2022/04/26 04:09:36;;;;;;;;;37.00;34.75;;;;;-145.45;100.00;57426.63;5070701;28;45292;-77
2022/04/26 04:12:01;;;;;;;;;34.00;29.50;;;;;-145.45;100.00;57426.63;5062264;28;45271;-80
2022/04/26 04:14:27;;;;;;;;;40.50;35.25;;;;;-145.45;100.00;57426.63;5073747;28;46222;-79
2022/04/26 04:16:55;;;;;;;;;30.75;26.25;;;;;-145.45;100.00;57426.63;5064568;28;45349;-79
2022/04/26 04:19:23;;;;;;;;;39.50;36.25;;;;;-145.45;100.00;57426.63;5069344;27;45244;-78
2022/04/26 04:21:50;;;;;;;;;36.75;32.25;;;;;-145.45;100.00;57426.63;5063519;28;45693;-78
2022/04/26 04:24:15;;;;;;;;;40.50;30.50;;;;;-145.45;100.00;57426.63;5063811;28;45303;-78
2022/04/26 04:26:41;;;;;;;;;39.50;32.25;;;;;-145.45;100.00;57426.63;5075059;28;45928;-76
2022/04/26 04:29:07;;;;;;;;;31.25;26.00;;;;;-145.45;100.00;57426.63;5069080;28;45411;-76
2022/04/26 04:31:33;;;;;;;;;35.25;31.75;;;;;-145.45;100.00;57426.63;5074572;28;45599;-77
2022/04/26 04:34:00;;;;;;;;;35.00;31.25;;;;;-145.45;100.00;57426.63;5064338;28;45438;-77
2022/04/26 04:36:27;;;;;;;;;37.25;29.25;;;;;-145.45;100.00;57426.63;5060807;28;45353;-75
2022/04/26 04:38:52;;;;;;;;;43.00;35.00;;;;;-145.45;100.00;57426.63;5063264;28;45241;-75
2022/04/26 04:41:18;;;;;;;;;42.50;36.25;;;;;-145.45;100.00;57426.63;5066608;28;45842;-76
2022/04/26 04:43:43;;;;;;;;;37.00;33.50;;;;;-145.45;100.00;57426.63;5068105;27;45387;-74
2022/04/26 04:46:08;;;;;;;;;36.50;30.75;;;;;-145.45;100.00;57426.63;5058754;28;46214;-74
2022/04/26 04:48:34;;;;;;;;;41.25;33.75;;;;;-145.45;100.00;57426.63;5071050;28;45639;-74
2022/04/26 04:50:59;;;;;;;;;39.75;34.75;;;;;-145.45;100.00;57426.63;5078065;28;45336;-75
2022/04/26 04:53:24;;;;;;;;;43.00;36.25;;;;;-145.45;100.00;57426.63;5070834;27;45641;-75
2022/04/26 04:55:50;;;;;;;;;41.75;34.25;;;;;-145.45;100.00;57426.63;5062127;28;46535;-79
2022/04/26 04:58:15;;;;;;;;;50.00;40.25;;;;;-145.45;100.00;57426.63;5067356;28;45481;-80
2022/04/26 05:00:41;;;;;;;;;42.25;37.00;;;;;-145.45;100.00;57426.63;5059142;28;45357;-82
2022/04/26 05:03:06;;;;;;;;;39.75;34.75;;;;;-145.45;100.00;57426.63;5066399;28;45845;-80
2022/04/26 05:05:31;;;;;;;;;46.75;38.00;;;;;-145.45;100.00;57426.63;5070434;27;48259;-82
2022/04/26 05:07:58;;;;;;;;;44.75;35.75;;;;;-145.45;100.00;57426.63;5064179;28;45265;-84
2022/04/26 05:10:24;;;;;;;;;39.25;34.25;;;;;-145.45;100.00;57426.63;5077347;28;45350;-82
2022/04/26 05:12:49;;;;;;;;;45.50;36.25;;;;;-145.45;100.00;57426.63;5071216;27;45379;-80
2022/04/26 05:15:15;;;;;;;;;33.75;32.75;;;;;-145.45;100.00;57426.63;5074332;28;47323;-76
2022/04/26 05:17:40;;;;;;;;;46.25;37.00;;;;;-145.45;100.00;57426.63;5067125;28;45426;-76
2022/04/26 05:20:06;;;;;;;;;41.00;35.00;;;;;-145.45;100.00;57426.63;5078855;28;45423;-75
2022/04/26 05:22:31;;;;;;;;;42.50;35.00;;;;;-145.45;100.00;57426.63;5070741;27;45401;-76
2022/04/26 05:24:57;;;;;;;;;44.50;35.25;;;;;-145.45;100.00;57426.63;5069943;28;46136;-75
2022/04/26 05:27:27;;;;;;;;;48.75;37.50;;;;;-145.45;100.00;57426.63;5066652;28;45347;-75
2022/04/26 05:29:54;;;;;;;;;39.75;35.25;;;;;-145.45;100.00;57426.63;5069215;28;45316;-75
2022/04/26 05:32:38;;;;;;;;;40.25;37.00;;;;;-145.45;100.00;57426.63;5065633;28;45554;-75
2022/04/26 05:35:04;;;;;;;;;55.00;41.50;;;;;-145.45;100.00;57426.63;5068106;28;46262;-75
2022/04/26 05:37:33;;;;;;;;;42.50;37.50;;;;;-145.45;100.00;57426.63;5064261;28;45394;-76
2022/04/26 05:40:02;;;;;;;;;44.75;37.25;;;;;-145.45;100.00;57426.63;5066508;28;45355;-75
2022/04/26 05:42:28;;;;;;;;;46.25;35.75;;;;;-145.45;100.00;57426.63;5067606;28;44882;-76
2022/04/26 05:44:53;;;;;;;;;49.00;38.00;;;;;-145.45;100.00;57426.63;5064779;28;47309;-75
2022/04/26 05:47:19;;;;;;;;;42.25;37.25;;;;;-145.45;100.00;57426.63;5072838;28;45484;-75
2022/04/26 05:49:44;;;;;;;;;42.25;34.75;;;;;-145.45;100.00;57426.63;5073152;27;45343;-76
2022/04/26 05:52:10;;;;;;;;;50.50;40.25;;;;;-145.45;100.00;57426.63;5074373;28;45493;-75
2022/04/26 05:54:35;;;;;;;;;53.25;39.00;;;;;-145.45;100.00;57426.63;5068833;27;46099;-75
2022/04/26 05:57:00;;;;;;;;;51.50;39.50;;;;;-145.45;100.00;57426.63;5068241;28;45248;-75
2022/04/26 05:59:26;;;;;;;;;53.75;41.25;;;;;-145.45;100.00;57426.63;5070162;27;45427;-75
2022/04/26 06:01:51;;;;;;;;;52.25;41.50;;;;;-145.45;100.00;57426.63;5066099;28;45441;-76
2022/04/26 06:04:17;;;;;;;;;52.00;44.00;;;;;-145.45;100.00;57426.63;5072342;28;45328;-75
2022/04/26 06:06:43;;;;;;;;;51.25;41.00;;;;;-145.45;100.00;57426.63;5065776;27;45729;-75
2022/04/26 06:09:08;;;;;;;;;55.25;41.00;;;;;-145.45;100.00;57426.63;5072453;27;45419;-75
2022/04/26 06:11:34;;;;;;;;;52.75;41.75;;;;;-145.45;100.00;57426.63;5065432;27;45264;-76
2022/04/26 06:14:01;;;;;;;;;55.25;43.50;;;;;-145.45;100.00;57426.63;5072159;27;46007;-76
2022/04/26 06:16:28;;;;;;;;;56.25;45.25;;;;;-145.45;100.00;57426.63;5065017;27;45480;-75
2022/04/26 06:18:53;;;;;;;;;55.50;45.00;;;;;-145.45;100.00;57426.63;5067302;28;45338;-75
2022/04/26 06:21:19;;;;;;;;;56.50;43.00;;;;;-145.45;100.00;57426.63;5062437;28;45517;-74
2022/04/26 06:23:44;;;;;;;;;60.00;47.50;;;;;-145.45;100.00;57426.63;5067409;27;46293;-75
2022/04/26 06:26:09;;;;;;;;;54.00;43.50;;;;;-145.45;100.00;57426.63;5060495;28;45453;-75
2022/04/26 06:28:35;;;;;;;;;63.25;48.75;;;;;-145.45;100.00;57426.63;5068002;28;45317;-74
2022/04/26 06:31:00;;;;;;;;;58.25;45.50;;;;;-145.45;100.00;57426.63;5067538;27;45268;-75
2022/04/26 06:33:26;;;;;;;;;61.50;48.75;;;;;-145.45;100.00;57426.63;5066477;28;47347;-74
2022/04/26 06:35:52;;;;;;;;;56.00;46.00;;;;;-145.45;100.00;57426.63;5062233;27;45268;-75
2022/04/26 06:38:17;;;;;;;;;57.00;45.50;;;;;-145.45;100.00;57426.63;5070984;28;45391;-75
2022/04/26 06:40:43;;;;;;;;;62.50;45.75;;;;;-145.45;100.00;57426.63;5058844;28;47156;-72
2022/04/26 06:43:11;;;;;;;;;60.25;46.25;;;;;-145.45;100.00;57426.63;5071641;28;45295;-74
2022/04/26 06:45:36;;;;;;;;;64.25;49.75;;;;;-145.45;100.00;57426.63;5060592;27;45430;-75
2022/04/26 06:48:09;;;;;;;;;62.00;47.00;;;;;-145.45;100.00;57426.63;5067448;28;45338;-75
2022/04/26 06:50:35;;;;;;;;;62.75;48.25;;;;;-145.45;100.00;57426.63;5074680;28;46982;-75
2022/04/26 06:53:00;;;;;;;;;59.75;47.75;;;;;-145.45;100.00;57426.63;5078059;28;45378;-74
2022/04/26 06:55:26;;;;;;;;;61.00;49.00;;;;;-145.45;100.00;57426.63;5062576;27;45426;-74
2022/04/26 06:57:51;;;;;;;;;67.00;51.00;;;;;-145.45;100.00;57426.63;5065262;28;48143;-74
2022/04/26 07:00:17;;;;;;;;;64.25;49.00;;;;;-145.45;100.00;57426.63;5060337;28;45382;-74
2022/04/26 07:02:42;;;;;;;;;66.00;48.50;;;;;-145.45;100.00;57426.63;5062614;28;46617;-74
2022/04/26 07:05:10;;;;;;;;;64.00;51.25;;;;;-145.45;100.00;57426.63;5070617;28;45324;-74
2022/04/26 07:07:36;;;;;;;;;63.50;49.75;;;;;-145.45;100.00;57426.63;5074597;28;45351;-75
2022/04/26 07:10:02;;;;;;;;;64.00;51.25;;;;;-145.45;100.00;57426.63;5063765;27;45238;-76
2022/04/26 07:12:27;;;;;;;;;68.00;51.50;;;;;-145.45;100.00;57426.63;5064885;28;47500;-75
2022/04/26 07:14:53;;;;;;;;;74.00;51.75;;;;;-145.45;100.00;57426.63;5062233;28;45167;-75
2022/04/26 07:17:18;;;;;;;;;66.00;50.75;;;;;-145.45;100.00;57426.63;5065216;28;45332;-71
2022/04/26 07:19:44;;;;;;;;;66.75;52.00;;;;;-145.45;100.00;57426.63;5068054;28;47045;-82
2022/04/26 07:22:09;;;;;;;;;66.50;51.75;;;;;-145.45;100.00;57426.63;5066647;28;45696;-84
2022/04/26 07:24:35;;;;;;;;;67.25;52.50;;;;;-145.45;100.00;57426.63;5071537;28;45606;-83
2022/04/26 07:27:01;;;;;;;;;68.25;53.50;;;;;-145.45;100.00;57426.63;5070487;28;45335;-83
2022/04/26 07:29:27;;;;;;;;;65.00;51.00;;;;;-145.45;100.00;57426.63;5069392;28;45389;-83
2022/04/26 07:31:52;;;;;;;;;58.75;46.25;;;;;-145.45;100.00;57426.63;5073142;28;48041;-83
2022/04/26 07:34:21;;;;;;;;;67.50;52.25;;;;;-145.45;100.00;57426.63;5074224;28;45470;-83
2022/04/26 07:36:51;;;;;;;;;69.25;52.25;;;;;-145.45;100.00;57426.63;5064845;28;45316;-83
2022/04/26 07:39:17;;;;;;;;;60.25;47.75;;;;;-145.45;100.00;57426.63;5073984;27;45255;-82
2022/04/26 07:41:48;;;;;;;;;63.75;49.75;;;;;-145.45;100.00;57426.63;5074169;28;47538;-83
2022/04/26 07:44:14;;;;;;;;;61.50;48.50;;;;;-145.45;100.00;57426.63;5071503;28;45362;-83
2022/04/26 07:46:45;;;;;;;;;63.75;50.50;;;;;-145.45;100.00;57426.63;5062262;28;45335;-83
2022/04/26 07:49:11;;;;;;;;;62.50;48.25;;;;;-145.45;100.00;57426.63;5075496;28;45518;-85
2022/04/26 07:51:37;;;;;;;;;59.25;47.00;;;;;-145.45;100.00;57426.63;5077381;27;46194;-84
2022/04/26 07:54:02;;;;;;;;;68.50;51.25;;;;;-145.45;100.00;57426.63;5068327;28;45249;-84
2022/04/26 07:56:28;;;;;;;;;59.25;44.25;;;;;-145.45;100.00;57426.63;5065913;28;45435;-83
2022/04/26 07:58:54;;;;;;;;;63.00;47.75;;;;;-145.45;100.00;57426.63;5075064;28;44808;-83
2022/04/26 08:01:20;;;;;;;;;55.75;45.25;;;;;-145.45;100.00;57426.63;5071742;27;45424;-82
2022/04/26 08:03:45;;;;;;;;;58.75;45.50;;;;;-145.45;100.00;57426.63;5069416;28;45233;-83
2022/04/26 08:06:11;;;;;;;;;59.00;42.50;;;;;-145.45;100.00;57426.63;5066789;28;45311;-83
2022/04/26 08:08:36;;;;;;;;;59.00;46.50;;;;;-145.45;100.00;57426.63;5078717;28;45544;-84
2022/04/26 08:11:03;;;;;;;;;62.50;48.25;;;;;-145.45;100.00;57426.63;5067127;27;46234;-82
2022/04/26 08:13:28;;;;;;;;;57.50;44.25;;;;;-145.45;100.00;57426.63;5073308;28;45354;-83
2022/04/26 08:15:54;;;;;;;;;62.50;48.25;;;;;-145.45;100.00;57426.63;5067871;27;45462;-83
2022/04/26 08:18:19;;;;;;;;;62.25;49.00;;;;;-145.45;100.00;57426.63;5068320;28;45588;-82
2022/04/26 08:20:45;;;;;;;;;52.50;41.25;;;;;-145.45;100.00;57426.63;5066534;27;46022;-81
2022/04/26 08:23:11;;;;;;;;;60.00;47.50;;;;;-145.45;100.00;57426.63;5068349;28;46137;-82
2022/04/26 08:28:21;;;;;;;;;56.50;44.25;;;;;-145.45;100.00;57426.63;5072701;28;45397;-83
2022/04/26 08:30:46;;;;;;;;;52.25;44.00;;;;;-145.45;100.00;57426.63;5079372;28;45335;-82
2022/04/26 08:33:12;;;;;;;;;55.50;43.50;;;;;-145.45;100.00;57426.63;5064562;27;45471;-83
2022/04/26 08:35:37;;;;;;;;;54.50;43.00;;;;;-145.45;100.00;57426.63;5063985;27;45817;-82
2022/04/26 08:38:02;;;;;;;;;52.75;43.00;;;;;-145.45;100.00;57426.63;5069592;28;45458;-83
2022/04/26 08:40:28;;;;;;;;;55.50;45.75;;;;;-145.45;100.00;57426.63;5058787;27;45327;-86
2022/04/26 08:42:53;;;;;;;;;50.25;42.00;;;;;-145.45;100.00;57426.63;5068599;28;47015;-84
2022/04/26 08:45:21;;;;;;;;;55.50;42.25;;;;;-145.45;100.00;57426.63;5060791;27;45259;-83
2022/04/26 08:53:21;;;;;;;;;54.25;43.50;;;;;-145.45;100.00;57426.63;5067588;28;45352;-86
2022/04/26 08:55:52;;;;;;;;;55.00;43.00;;;;;-145.45;100.00;57426.63;5066053;28;45430;-83
2022/04/26 08:58:18;;;;;;;;;66.25;46.50;;;;;-145.45;100.00;57426.63;5079071;28;47195;-83
2022/04/26 09:01:06;;;;;;;;;52.00;42.75;;;;;-145.45;100.00;57426.63;5074787;27;45339;-83
2022/04/26 09:03:33;;;;;;;;;55.25;45.25;;;;;-145.45;100.00;57426.63;5071539;28;45358;-84
2022/04/26 09:06:13;;;;;;;;;54.75;45.25;;;;;-145.45;100.00;57426.63;5088745;27;45314;-87
2022/04/26 09:08:40;;;;;;;;;55.50;43.50;;;;;-145.45;100.00;57426.63;5075119;28;45344;-84
2022/04/26 09:11:22;;;;;;;;;55.75;43.75;;;;;-145.45;100.00;57426.63;5067037;28;47235;-77
2022/04/26 09:13:48;;;;;;;;;48.75;41.25;;;;;-145.45;100.00;57426.63;5072889;28;45217;-80
2022/04/26 09:16:19;;;;;;;;;59.00;45.75;;;;;-145.45;100.00;57426.63;5081027;27;45294;-81
2022/04/26 09:18:56;;;;;;;;;60.00;45.25;;;;;-145.45;100.00;57426.63;5071660;28;45416;-83
2022/04/26 09:21:26;;;;;;;;;50.75;42.00;;;;;-145.45;100.00;57426.63;5065359;27;46143;-83
2022/04/26 09:23:52;;;;;;;;;55.50;41.25;;;;;-145.45;100.00;57426.63;5079522;27;45382;-82
2022/04/26 09:26:19;;;;;;;;;54.00;44.00;;;;;-145.45;100.00;57426.63;5078091;28;45265;-84
2022/04/26 09:28:51;;;;;;;;;52.75;41.00;;;;;-145.45;100.00;57426.63;5075865;27;45543;-81
2022/04/26 09:31:30;;;;;;;;;52.25;38.00;;;;;-145.45;100.00;57426.63;5077021;27;46377;-79
2022/04/26 09:33:57;;;;;;;;;44.50;38.00;;;;;-145.45;100.00;57426.63;5063327;27;45529;-81
2022/04/26 09:36:24;;;;;;;;;53.50;42.00;;;;;-145.45;100.00;57426.63;5063491;28;45309;-81
2022/04/26 09:38:51;;;;;;;;;51.25;42.75;;;;;-145.45;100.00;57426.63;5069265;27;45310;-81
2022/04/26 09:41:18;;;;;;;;;54.00;44.00;;;;;-145.45;100.00;57426.63;5071222;28;46179;-83
2022/04/26 09:43:43;;;;;;;;;53.25;42.00;;;;;-145.45;100.00;57426.63;5074829;28;45392;-86
2022/04/26 09:46:09;;;;;;;;;55.25;46.00;;;;;-145.45;100.00;57426.63;5062892;28;45232;-87
2022/04/26 09:48:36;;;;;;;;;54.25;42.50;;;;;-145.45;100.00;57426.63;5077632;28;46130;-86
2022/04/26 09:51:06;;;;;;;;;58.00;44.75;;;;;-145.45;100.00;57426.63;5081517;28;46489;-84
2022/04/26 09:53:33;;;;;;;;;59.00;45.25;;;;;-145.45;100.00;57426.63;5074473;27;44780;-84
2022/04/26 09:56:03;;;;;;;;;57.25;46.00;;;;;-145.45;100.00;57426.63;5066885;28;45411;-88
2022/04/26 09:58:29;;;;;;;;;52.00;41.00;;;;;-145.45;100.00;57426.63;5068227;28;45612;-85
2022/04/26 10:01:01;;;;;;;;;56.25;43.75;;;;;-145.45;100.00;57426.63;5061972;28;46140;-83
2022/04/26 10:03:31;;;;;;;;;52.25;43.00;;;;;-145.45;100.00;57426.63;5079219;28;45558;-88
2022/04/26 10:06:03;;;;;;;;;54.00;43.25;;;;;-145.45;100.00;57426.63;5082829;28;45231;-89
2022/04/26 10:08:30;;;;;;;;;52.00;42.25;;;;;-145.45;100.00;57426.63;5079909;28;45573;-82
2022/04/26 10:10:57;;;;;;;;;53.50;42.25;;;;;-145.45;100.00;57426.63;5083741;27;46315;-84
2022/04/26 10:13:32;;;;;;;;;56.75;43.75;;;;;-145.45;100.00;57426.63;5068086;28;45385;-82
2022/04/26 10:16:05;;;;;;;;;54.75;44.50;;;;;-145.45;100.00;57426.63;5069260;27;45447;-85
2022/04/26 10:18:44;;;;;;;;;54.25;43.75;;;;;-145.45;100.00;57426.63;5069622;28;45339;-87
2022/04/26 10:21:30;;;;;;;;;50.25;41.25;;;;;-145.45;100.00;57426.63;5064198;28;47079;-86
2022/04/26 10:24:03;;;;;;;;;54.75;42.75;;;;;-145.45;100.00;57426.63;5069846;28;45497;-86
2022/04/26 10:26:30;;;;;;;;;53.00;43.00;;;;;-145.45;100.00;57426.63;5079558;27;45287;-86
2022/04/26 10:29:08;;;;;;;;;59.00;45.00;;;;;-145.45;100.00;57426.63;5069632;27;45364;-86
2022/04/26 10:31:49;;;;;;;;;55.50;45.00;;;;;-145.45;100.00;57426.63;5073688;28;47241;-84
2022/04/26 10:34:27;;;;;;;;;55.50;44.00;;;;;-145.45;100.00;57426.63;5068016;28;45425;-89
2022/04/26 10:36:54;;;;;;;;;51.00;39.75;;;;;-145.45;100.00;57426.63;5064708;28;45336;-86
2022/04/26 10:39:39;;;;;;;;;54.25;45.25;;;;;-145.45;100.00;57426.63;5061988;27;45466;-85
2022/04/26 10:42:28;;;;;;;;;50.25;41.50;;;;;-145.45;100.00;57426.63;5063808;28;45319;-84
2022/04/26 10:44:59;;;;;;;;;49.50;39.00;;;;;-145.45;100.00;57426.63;5069515;28;45416;-83
2022/04/26 10:47:26;;;;;;;;;52.75;41.00;;;;;-145.45;100.00;57426.63;5068710;28;45465;-83
2022/04/26 10:49:54;;;;;;;;;53.25;43.00;;;;;-145.45;100.00;57426.63;5075961;28;45997;-86
2022/04/26 10:52:22;;;;;;;;;55.00;44.75;;;;;-145.45;100.00;57426.63;5074075;28;45380;-84
2022/04/26 10:55:02;;;;;;;;;57.00;41.75;;;;;-145.45;100.00;57426.63;5061327;28;45332;-83
2022/04/26 10:57:30;;;;;;;;;53.00;43.75;;;;;-145.45;100.00;57426.63;5074943;28;45504;-85
2022/04/26 11:00:20;;;;;;;;;54.75;43.00;;;;;-145.45;100.00;57426.63;5077891;27;45509;-84
2022/04/26 11:02:47;;;;;;;;;47.50;39.75;;;;;-145.45;100.00;57426.63;5067424;28;47007;-86
2022/04/26 11:05:16;;;;;;;;;50.50;41.75;;;;;-145.45;100.00;57426.63;5072735;27;45314;-84
2022/04/26 11:07:47;;;;;;;;;48.75;39.75;;;;;-145.45;100.00;57426.63;5070484;28;45505;-85
2022/04/26 11:10:15;;;;;;;;;53.25;41.00;;;;;-145.45;100.00;57426.63;5067535;28;45328;-84
2022/04/26 11:12:41;;;;;;;;;47.75;39.50;;;;;-145.45;100.00;57426.63;5076293;27;47035;-87
2022/04/26 11:15:21;;;;;;;;;48.75;38.25;;;;;-145.45;100.00;57426.63;5060934;28;45208;-84
2022/04/26 11:17:47;;;;;;;;;51.00;36.75;;;;;-145.45;100.00;57426.63;5069953;28;45403;-85
2022/04/26 11:20:24;;;;;;;;;34.25;31.75;;;;;-145.45;100.00;57426.63;5068510;28;45458;-84
2022/04/26 11:22:52;;;;;;;;;52.25;40.25;;;;;-145.45;100.00;57426.63;5064106;28;45457;-83
2022/04/26 11:28:11;;;;;;;;;49.00;38.25;;;;;-145.45;100.00;57426.63;5066918;28;45446;-85
2022/04/26 11:30:44;;;;;;;;;42.00;36.75;;;;;-145.45;100.00;57426.63;5062265;28;45315;-83
2022/04/26 11:33:22;;;;;;;;;47.00;39.00;;;;;-145.45;100.00;57426.63;5071931;28;47298;-85
2022/04/26 11:36:06;;;;;;;;;48.25;37.25;;;;;-145.45;100.00;57426.63;5064766;27;45234;-86
2022/04/26 11:38:32;;;;;;;;;47.00;37.50;;;;;-145.45;100.00;57426.63;5076824;28;45448;-87
2022/04/26 11:41:02;;;;;;;;;47.00;38.75;;;;;-145.45;100.00;57426.63;5061463;28;44905;-85
2022/04/26 11:43:37;;;;;;;;;46.50;37.25;;;;;-145.45;100.00;57426.63;5072195;28;46120;-82
2022/04/26 11:46:04;;;;;;;;;48.50;39.50;;;;;-145.45;100.00;57426.63;5059279;28;45325;-84
2022/04/26 11:48:33;;;;;;;;;46.75;37.00;;;;;-145.45;100.00;57426.63;5072010;28;45665;-87
2022/04/26 11:50:59;;;;;;;;;40.00;35.00;;;;;-145.45;100.00;57426.63;5080642;28;46150;-83
2022/04/26 11:53:27;;;;;;;;;41.50;35.00;;;;;-145.45;100.00;57426.63;5071211;27;45267;-81
2022/04/26 11:56:00;;;;;;;;;36.25;31.00;;;;;-145.45;100.00;57426.63;5064379;28;45694;-85
2022/04/26 11:58:35;;;;;;;;;39.33;34.00;;;;;-145.45;100.00;57426.63;5068266;28;45431;-85
2022/04/26 12:01:17;;;;;;;;;43.75;34.75;;;;;-145.45;100.00;57426.63;5074509;27;45563;-83
2022/04/26 12:03:52;;;;;;;;;39.25;33.50;;;;;-145.45;100.00;57426.63;5079112;28;45340;-81
2022/04/26 12:06:19;;;;;;;;;42.75;34.00;;;;;-145.45;100.00;57426.63;5066420;27;45425;-83
2022/04/26 12:08:54;;;;;;;;;44.67;37.67;;;;;-145.45;100.00;57426.63;5064745;28;45449;-88
2022/04/26 12:11:21;;;;;;;;;36.33;32.33;;;;;-145.45;100.00;57426.63;5078039;27;45461;-82
2022/04/26 12:14:08;;;;;;;;;44.75;36.50;;;;;-145.45;100.00;57426.63;5071449;27;46327;-84
2022/04/26 12:16:41;;;;;;;;;40.33;33.00;;;;;-145.45;100.00;57426.63;5062138;28;45416;-87
2022/04/26 12:19:07;;;;;;;;;37.67;33.00;;;;;-145.45;100.00;57426.63;5071482;28;45315;-81
2022/04/26 12:21:49;;;;;;;;;37.00;32.67;;;;;-145.45;100.00;57426.63;5062019;27;45410;-86
2022/04/26 12:24:17;;;;;;;;;41.33;34.67;;;;;-145.45;100.00;57426.63;5070138;28;46183;-85
2022/04/26 12:27:12;;;;;;;;;33.00;29.67;;;;;-145.45;100.00;57426.63;5061731;28;45376;-81
2022/04/26 12:29:42;;;;;;;;;38.33;34.33;;;;;-145.45;100.00;57426.63;5066106;28;45258;-85
2022/04/26 12:32:11;;;;;;;;;35.67;30.67;;;;;-145.45;100.00;57426.63;5061133;28;45435;-79
2022/04/26 12:34:46;;;;;;;;;32.33;31.67;;;;;-145.45;100.00;57426.63;5064770;28;45331;-80
2022/04/26 12:37:41;;;;;;;;;32.33;30.67;;;;;-145.45;100.00;57426.63;5064768;28;45378;-79
2022/04/26 12:40:09;;;;;;;;;34.67;31.00;;;;;-145.45;100.00;57426.63;5062452;27;45335;-79
2022/04/26 12:42:38;;;;;;;;;30.67;27.00;;;;;-145.45;100.00;57426.63;5064653;28;45302;-80
2022/04/26 12:45:32;;;;;;;;;28.67;24.67;;;;;-145.45;100.00;57426.63;5062986;27;45245;-82
2022/04/26 12:51:24;;;;;;;;;31.00;26.33;;;;;-145.45;100.00;57426.63;5067172;28;45382;-81
2022/04/26 12:53:51;;;;;;;;;28.33;28.33;;;;;-145.45;100.00;57426.63;5066391;28;45413;-74
2022/04/26 12:56:19;;;;;;;;;33.33;30.33;;;;;-145.45;100.00;57426.63;5074604;27;45529;-77
2022/04/26 12:58:46;;;;;;;;;30.67;27.33;;;;;-145.45;100.00;57426.63;5066921;28;45452;-77
2022/04/26 13:01:13;;;;;;;;;25.67;25.33;;;;;-145.45;100.00;57426.63;5064848;28;45307;-76
2022/04/26 13:03:40;;;;;;;;;27.67;27.67;;;;;-145.45;100.00;57426.63;5066091;28;45458;-78
2022/04/26 13:06:12;;;;;;;;;25.67;23.00;;;;;-145.45;100.00;57426.63;5065496;28;45361;-76
2022/04/26 13:08:43;;;;;;;;;24.67;23.33;;;;;-145.45;100.00;57426.63;5064294;28;45793;-77
2022/04/26 13:11:08;;;;;;;;;28.00;25.00;;;;;-145.45;100.00;57426.63;5062754;28;45352;-77
2022/04/26 13:13:39;;;;;;;;;29.33;26.00;;;;;-145.45;100.00;57426.63;5067930;27;45568;-77
2022/04/26 13:16:05;;;;;;;;;26.67;24.33;;;;;-145.45;100.00;57426.63;5063339;27;45504;-78
2022/04/26 13:18:30;;;;;;;;;23.33;20.67;;;;;-145.45;100.00;57426.63;5066855;28;45350;-78
2022/04/26 13:20:57;;;;;;;;;26.67;25.00;;;;;-145.45;100.00;57426.63;5080104;27;45396;-78
2022/04/26 13:23:23;;;;;;;;;27.00;25.00;;;;;-145.45;100.00;57426.63;5065340;28;45927;-79
2022/04/26 13:25:49;;;;;;;;;27.00;22.67;;;;;-145.45;100.00;57426.63;5063850;27;45708;-75
2022/04/26 13:28:14;;;;;;;;;25.33;20.67;;;;;-145.45;100.00;57426.63;5060830;28;45248;-75
2022/04/26 13:30:41;;;;;;;;;21.00;20.33;;;;;-145.45;100.00;57426.63;5058384;28;45276;-77
2022/04/26 13:33:07;;;;;;;;;26.33;24.67;;;;;-145.45;100.00;57426.63;5068093;28;45533;-77
2022/04/26 13:35:33;;;;;;;;;22.00;21.00;;;;;-145.45;100.00;57426.63;5058195;27;46276;-77
2022/04/26 13:37:59;;;;;;;;;24.67;23.00;;;;;-145.45;100.00;57426.63;5070192;28;45416;-77
2022/04/26 13:40:25;;;;;;;;;24.33;23.33;;;;;-145.45;100.00;57426.63;5062682;27;45359;-76
2022/04/26 13:42:51;;;;;;;;;24.33;23.00;;;;;-145.45;100.00;57426.63;5069397;28;45328;-80
2022/04/26 13:45:17;;;;;;;;;26.00;24.33;;;;;-145.45;100.00;57426.63;5063875;27;47176;-78
2022/04/26 13:47:43;;;;;;;;;24.33;23.33;;;;;-145.45;100.00;57426.63;5063914;28;45550;-76
2022/04/26 13:50:09;;;;;;;;;24.33;22.00;;;;;-145.45;100.00;57426.63;5063990;28;45512;-77
2022/04/26 13:52:35;;;;;;;;;21.67;20.33;;;;;-145.45;100.00;57426.63;5067397;28;46024;-75
2022/04/26 13:55:01;;;;;;;;;23.00;22.00;;;;;-145.45;100.00;57426.63;5065878;27;46209;-77
2022/04/26 13:57:26;;;;;;;;;24.67;22.33;;;;;-145.45;100.00;57426.63;5072798;28;45389;-80
2022/04/26 13:59:52;;;;;;;;;30.33;29.00;;;;;-145.45;100.00;57426.63;5074312;28;45217;-79
2022/04/26 14:02:21;;;;;;;;;23.00;20.33;;;;;-145.45;100.00;57426.63;5075808;27;45228;-78
2022/04/26 14:04:48;;;;;;;;;21.33;21.00;;;;;-145.45;100.00;57426.63;5072886;28;45606;-77
2022/04/26 14:07:13;;;;;;;;;21.33;20.33;;;;;-145.45;100.00;57426.63;5063688;28;45446;-78
2022/04/26 14:09:39;;;;;;;;;25.33;23.67;;;;;-145.45;100.00;57426.63;5076772;27;45267;-79
2022/04/26 14:12:05;;;;;;;;;16.67;15.67;;;;;-145.45;100.00;57426.63;5063488;28;48222;-78
2022/04/26 14:22:43;;;;;;;;;21.67;18.67;;;;;-145.45;100.00;57426.63;5071332;28;45359;-76
2022/04/26 14:25:10;;;;;;;;;25.00;22.00;;;;;-145.45;100.00;57426.63;5066494;28;48137;-78
2022/04/26 14:27:40;;;;;;;;;23.00;19.67;;;;;-145.45;100.00;57426.63;5083169;27;45578;-78
2022/04/26 14:30:08;;;;;;;;;17.67;17.67;;;;;-145.45;100.00;57426.63;5067018;28;45299;-77
2022/04/26 14:32:34;;;;;;;;;17.33;16.33;;;;;-145.45;100.00;57426.63;5063143;28;45495;-78
2022/04/26 14:34:59;;;;;;;;;17.33;16.00;;;;;-145.45;100.00;57426.63;5066523;28;45450;-80
2022/04/26 14:37:25;;;;;;;;;19.67;19.67;;;;;-145.45;100.00;57426.63;5065423;28;45369;-77
2022/04/26 14:39:51;;;;;;;;;18.33;18.33;;;;;-145.45;100.00;57426.63;5068497;27;45344;-77
2022/04/26 14:42:17;;;;;;;;;16.00;16.00;;;;;-145.45;100.00;57426.63;5063950;28;45296;-79
2022/04/26 14:44:43;;;;;;;;;20.00;19.00;;;;;-145.45;100.00;57426.63;5083806;27;47374;-77
2022/04/26 14:47:09;;;;;;;;;19.33;17.33;;;;;-145.45;100.00;57426.63;5064643;28;45345;-78
2022/04/26 14:49:34;;;;;;;;;14.67;14.67;;;;;-145.45;100.00;57426.63;5078298;28;45411;-78
2022/04/26 14:52:00;;;;;;;;;18.33;17.00;;;;;-145.45;100.00;57426.63;5078730;28;45351;-79
2022/04/26 14:54:26;;;;;;;;;17.67;14.67;;;;;-145.45;100.00;57426.63;5080244;27;45795;-77
2022/04/26 14:56:51;;;;;;;;;17.33;17.00;;;;;-145.45;100.00;57426.63;5071687;27;45458;-77
2022/04/26 14:59:19;;;;;;;;;22.33;18.00;;;;;-145.45;100.00;57426.63;5075335;27;45521;-77